createdAt,value
2019-04-23T00:00:08.858Z,0.00
2019-04-23T00:01:21.314Z,0.00
2019-04-23T00:02:08.302Z,0.00
2019-04-23T00:03:05.533Z,0.00
2019-04-23T00:04:08.445Z,0.00
2019-04-23T00:05:07.945Z,0.00
2019-04-23T00:06:15.095Z,0.00
2019-04-23T00:08:11.357Z,0.00
2019-04-23T00:09:13.713Z,0.00
2019-04-23T00:10:12.006Z,0.00
2019-04-23T00:11:15.371Z,0.00
2019-04-23T00:12:13.299Z,0.00
2019-04-23T00:13:05.784Z,0.00
2019-04-23T00:14:11.535Z,0.00
2019-04-23T00:15:09.296Z,0.00
2019-04-23T00:16:21.988Z,0.00
2019-04-23T00:17:07.309Z,0.00
2019-04-23T00:18:05.689Z,0.00
2019-04-23T00:19:03.128Z,0.00
2019-04-23T00:20:09.817Z,0.00
2019-04-23T00:21:11.253Z,0.00
2019-04-23T00:22:05.598Z,0.00
2019-04-23T00:23:11.066Z,0.00
2019-04-23T00:24:15.839Z,0.00
2019-04-23T00:25:25.675Z,0.00
2019-04-23T00:26:17.764Z,0.00
2019-04-23T00:27:19.497Z,0.00
2019-04-23T00:28:06.687Z,0.00
2019-04-23T00:30:01.022Z,0.00
2019-04-23T00:31:15.243Z,0.00
2019-04-23T00:32:10.721Z,0.00
2019-04-23T00:33:12.335Z,0.00
2019-04-23T00:34:11.863Z,0.00
2019-04-23T00:35:06.467Z,0.00
2019-04-23T00:36:27.760Z,0.00
2019-04-23T00:37:12.995Z,0.00
2019-04-23T00:38:13.965Z,0.00
2019-04-23T00:39:06.019Z,0.00
2019-04-23T00:40:03.513Z,0.00
2019-04-23T00:41:05.576Z,0.00
2019-04-23T00:42:10.326Z,0.00
2019-04-23T00:43:08.596Z,0.00
2019-04-23T00:44:12.305Z,0.00
2019-04-23T00:45:00.358Z,0.00
2019-04-23T00:46:11.487Z,0.00
2019-04-23T00:47:06.759Z,0.00
2019-04-23T00:48:12.723Z,0.00
2019-04-23T00:50:15.951Z,0.00
2019-04-23T00:52:09.368Z,0.00
2019-04-23T00:53:05.784Z,0.00
2019-04-23T00:54:08.019Z,0.00
2019-04-23T00:55:10.723Z,0.00
2019-04-23T00:56:25.005Z,0.00
2019-04-23T00:57:09.034Z,0.00
2019-04-23T00:58:15.811Z,0.00
2019-04-23T00:59:08.911Z,0.00
2019-04-23T01:00:28.146Z,0.00
2019-04-23T01:01:07.385Z,0.00
2019-04-23T01:02:08.884Z,0.00
2019-04-23T01:03:05.793Z,0.00
2019-04-23T01:04:07.085Z,0.00
2019-04-23T01:05:14.787Z,0.00
2019-04-23T01:06:06.459Z,0.00
2019-04-23T01:07:04.287Z,0.00
2019-04-23T01:08:08.343Z,0.00
2019-04-23T01:09:25.916Z,0.00
2019-04-23T01:10:10.627Z,0.00
2019-04-23T01:11:11.630Z,0.00
2019-04-23T01:12:07.637Z,0.00
2019-04-23T01:13:09.178Z,0.00
2019-04-23T01:14:17.979Z,0.00
2019-04-23T01:15:12.053Z,0.00
2019-04-23T01:16:08.522Z,0.00
2019-04-23T01:17:11.322Z,0.00
2019-04-23T01:18:14.196Z,0.00
2019-04-23T01:19:06.820Z,0.00
2019-04-23T01:20:04.767Z,0.00
2019-04-23T01:20:54.269Z,0.00
2019-04-23T01:21:45.323Z,0.00
2019-04-23T01:22:46.326Z,0.00
2019-04-23T01:23:53.911Z,0.00
2019-04-23T01:24:46.714Z,0.00
2019-04-23T01:25:54.569Z,0.00
2019-04-23T01:27:22.357Z,0.00
2019-04-23T01:28:07.693Z,0.00
2019-04-23T01:29:07.060Z,0.00
2019-04-23T01:30:13.984Z,0.00
2019-04-23T01:31:15.506Z,0.00
2019-04-23T01:32:05.337Z,0.00
2019-04-23T01:33:11.063Z,0.00
2019-04-23T01:34:13.412Z,0.00
2019-04-23T01:37:10.927Z,0.00
2019-04-23T01:38:11.130Z,0.00
2019-04-23T01:39:14.392Z,0.00
2019-04-23T01:40:13.576Z,0.00
2019-04-23T01:41:14.486Z,0.00
2019-04-23T01:42:22.797Z,0.00
2019-04-23T01:43:14.370Z,0.00
2019-04-23T01:44:13.847Z,0.00
2019-04-23T01:45:27.326Z,0.00
2019-04-23T01:46:14.263Z,0.00
2019-04-23T01:47:15.594Z,0.00
2019-04-23T01:48:05.239Z,0.00
2019-04-23T01:49:13.730Z,0.00
2019-04-23T01:50:14.382Z,0.00
2019-04-23T01:51:02.083Z,0.00
2019-04-23T01:52:20.845Z,0.00
2019-04-23T01:53:16.699Z,0.00
2019-04-23T01:54:09.545Z,0.00
2019-04-23T01:55:17.169Z,0.00
2019-04-23T01:56:13.383Z,0.00
2019-04-23T01:57:09.616Z,0.00
2019-04-23T01:58:26.072Z,0.00
2019-04-23T01:59:16.695Z,0.00
2019-04-23T02:00:20.243Z,0.00
2019-04-23T02:01:11.761Z,0.00
2019-04-23T02:02:14.062Z,0.00
2019-04-23T02:03:16.574Z,0.00
2019-04-23T02:04:18.666Z,0.00
2019-04-23T02:05:17.374Z,0.00
2019-04-23T02:06:25.243Z,0.00
2019-04-23T02:07:11.423Z,0.00
2019-04-23T02:08:08.075Z,0.00
2019-04-23T02:09:12.361Z,0.00
2019-04-23T02:11:07.636Z,0.00
2019-04-23T02:12:11.500Z,0.00
2019-04-23T02:13:20.450Z,0.00
2019-04-23T02:14:34.602Z,0.00
2019-04-23T02:15:11.895Z,0.00
2019-04-23T02:16:15.245Z,0.00
2019-04-23T02:17:28.773Z,0.00
2019-04-23T02:18:13.734Z,0.00
2019-04-23T02:19:18.223Z,0.00
2019-04-23T02:20:19.340Z,0.00
2019-04-23T02:21:10.175Z,0.00
2019-04-23T02:22:19.336Z,0.00
2019-04-23T02:23:34.266Z,0.00
2019-04-23T02:24:12.043Z,0.00
2019-04-23T02:25:15.774Z,0.00
2019-04-23T02:26:09.044Z,0.00
2019-04-23T02:27:13.533Z,0.00
2019-04-23T02:28:16.606Z,0.00
2019-04-23T02:29:28.611Z,0.00
2019-04-23T02:30:28.968Z,0.00
2019-04-23T02:32:08.872Z,0.00
2019-04-23T02:33:29.818Z,0.00
2019-04-23T02:34:31.080Z,0.00
2019-04-23T02:35:32.952Z,0.00
2019-04-23T02:36:32.283Z,0.00
2019-04-23T02:37:28.572Z,0.00
2019-04-23T02:38:22.909Z,0.00
2019-04-23T02:39:11.642Z,0.00
2019-04-23T02:42:32.988Z,0.00
2019-04-23T02:44:19.091Z,0.00
2019-04-23T02:45:16.756Z,0.00
2019-04-23T02:46:09.870Z,0.00
2019-04-23T02:47:23.500Z,0.00
2019-04-23T02:50:31.133Z,0.00
2019-04-23T02:51:17.983Z,0.00
2019-04-23T02:52:24.096Z,0.00
2019-04-23T02:53:25.662Z,0.00
2019-04-23T02:54:28.793Z,0.00
2019-04-23T02:55:21.936Z,0.00
2019-04-23T02:57:24.728Z,0.00
2019-04-23T03:03:25.112Z,0.00
2019-04-23T03:04:33.944Z,0.00
2019-04-23T03:06:16.607Z,0.00
2019-04-23T03:07:22.436Z,0.00
2019-04-23T03:08:16.758Z,0.00
2019-04-23T03:09:23.721Z,0.00
2019-04-23T03:10:16.089Z,0.00
2019-04-23T03:11:24.962Z,0.00
2019-04-23T03:12:27.236Z,0.00
2019-04-23T03:13:28.764Z,0.00
2019-04-23T03:14:35.686Z,0.00
2019-04-23T03:17:09.683Z,0.00
2019-04-23T03:18:31.922Z,0.00
2019-04-23T03:19:15.274Z,0.00
2019-04-23T03:20:21.941Z,0.00
2019-04-23T03:21:27.070Z,0.00
2019-04-23T03:22:23.453Z,0.00
2019-04-23T03:23:29.032Z,0.00
2019-04-23T03:24:36.621Z,0.00
2019-04-23T03:25:23.435Z,0.00
2019-04-23T03:26:25.875Z,0.00
2019-04-23T03:27:27.460Z,0.00
2019-04-23T03:28:27.000Z,0.00
2019-04-23T03:29:20.242Z,0.00
2019-04-23T03:34:02.874Z,0.00
2019-04-23T03:35:10.494Z,0.00
2019-04-23T03:37:23.470Z,0.00
2019-04-23T03:38:32.116Z,0.00
2019-04-23T03:39:32.941Z,0.00
2019-04-23T03:41:21.433Z,0.00
2019-04-23T03:42:17.615Z,0.00
2019-04-23T03:43:26.171Z,0.00
2019-04-23T03:44:20.673Z,0.00
2019-04-23T03:45:30.259Z,0.00
2019-04-23T03:49:13.500Z,0.00
2019-04-23T03:51:20.472Z,0.00
2019-04-23T03:52:30.964Z,0.00
2019-04-23T03:53:24.423Z,0.00
2019-04-23T03:55:23.153Z,0.00
2019-04-23T03:56:22.432Z,0.00
2019-04-23T03:57:18.234Z,0.00
2019-04-23T03:58:21.129Z,0.00
2019-04-23T03:59:30.055Z,0.00
2019-04-23T04:00:31.073Z,0.00
2019-04-23T04:01:25.240Z,0.00
2019-04-23T04:02:35.319Z,0.00
2019-04-23T04:05:22.132Z,4.00
2019-04-23T04:06:24.102Z,4.00
2019-04-23T04:07:36.277Z,0.00
2019-04-23T04:08:29.145Z,4.00
2019-04-23T04:10:17.597Z,4.00
2019-04-23T04:11:18.125Z,4.00
2019-04-23T04:12:21.202Z,4.00
2019-04-23T04:13:24.464Z,8.00
2019-04-23T04:15:31.686Z,8.00
2019-04-23T04:19:25.192Z,12.00
2019-04-23T04:20:29.274Z,12.00
2019-04-23T04:23:33.921Z,12.00
2019-04-23T04:24:27.583Z,16.00
2019-04-23T04:26:22.673Z,16.00
2019-04-23T04:27:27.109Z,20.00
2019-04-23T04:28:19.448Z,20.00
2019-04-23T04:29:21.006Z,20.00
2019-04-23T04:30:22.280Z,24.00
2019-04-23T04:31:30.952Z,24.00
2019-04-23T04:32:12.543Z,28.00
2019-04-23T04:33:29.994Z,28.00
2019-04-23T04:37:35.612Z,36.00
2019-04-23T04:38:36.458Z,40.00
2019-04-23T04:39:16.760Z,40.00
2019-04-23T04:42:21.108Z,48.00
2019-04-23T04:45:31.693Z,60.00
2019-04-23T04:47:21.084Z,64.00
2019-04-23T04:48:19.839Z,68.00
2019-04-23T04:50:45.904Z,72.00
2019-04-23T04:51:46.961Z,76.00
2019-04-23T04:52:41.984Z,80.00
2019-04-23T04:53:40.618Z,84.00
2019-04-23T04:54:17.814Z,88.00
2019-04-23T04:56:25.274Z,92.00
2019-04-23T04:57:35.932Z,96.00
2019-04-23T04:59:13.402Z,104.00
2019-04-23T05:00:23.600Z,112.00
2019-04-23T05:04:24.776Z,128.00
2019-04-23T05:06:29.024Z,132.00
2019-04-23T05:07:18.948Z,140.00
2019-04-23T05:08:26.464Z,140.00
2019-04-23T05:09:19.642Z,144.00
2019-04-23T05:10:29.586Z,148.00
2019-04-23T05:11:26.336Z,156.00
2019-04-23T05:12:21.994Z,156.00
2019-04-23T05:13:34.275Z,164.00
2019-04-23T05:14:13.051Z,164.00
2019-04-23T05:16:15.948Z,176.00
2019-04-23T05:17:22.252Z,180.00
2019-04-23T05:18:25.381Z,184.00
2019-04-23T05:19:27.346Z,192.00
2019-04-23T05:20:20.443Z,192.00
2019-04-23T05:22:16.453Z,204.00
2019-04-23T05:23:28.143Z,208.00
2019-04-23T05:24:14.874Z,212.00
2019-04-23T05:25:15.452Z,216.00
2019-04-23T05:26:19.276Z,220.00
2019-04-23T05:27:16.106Z,228.00
2019-04-23T05:29:19.954Z,232.00
2019-04-23T05:30:15.485Z,240.00
2019-04-23T05:31:15.329Z,244.00
2019-04-23T05:32:12.159Z,248.00
2019-04-23T05:34:16.130Z,260.00
2019-04-23T05:35:28.676Z,264.00
2019-04-23T05:37:09.266Z,272.00
2019-04-23T05:38:42.929Z,280.00
2019-04-23T05:39:20.849Z,284.00
2019-04-23T05:40:24.770Z,288.00
2019-04-23T05:41:17.211Z,296.00
2019-04-23T05:42:10.946Z,296.00
2019-04-23T05:43:15.804Z,304.00
2019-04-23T05:44:15.732Z,308.00
2019-04-23T05:45:08.341Z,312.00
2019-04-23T05:46:17.939Z,320.00
2019-04-23T05:47:17.135Z,324.00
2019-04-23T05:48:19.807Z,328.00
2019-04-23T05:49:11.086Z,332.00
2019-04-23T05:50:17.243Z,336.00
2019-04-23T05:52:19.080Z,348.00
2019-04-23T05:53:14.698Z,348.00
2019-04-23T05:54:14.916Z,356.00
2019-04-23T05:55:08.711Z,360.00
2019-04-23T05:56:15.168Z,364.00
2019-04-23T05:57:09.879Z,372.00
2019-04-23T05:58:19.886Z,376.00
2019-04-23T05:59:12.938Z,380.00
2019-04-23T06:00:19.339Z,384.00
2019-04-23T06:01:35.609Z,388.00
2019-04-23T06:02:26.526Z,392.00
2019-04-23T06:05:22.496Z,404.00
2019-04-23T06:06:20.821Z,408.00
2019-04-23T06:07:25.113Z,416.00
2019-04-23T06:08:12.100Z,420.00
2019-04-23T06:09:13.894Z,428.00
2019-04-23T06:10:14.566Z,432.00
2019-04-23T06:11:11.836Z,436.00
2019-04-23T06:12:12.371Z,444.00
2019-04-23T06:13:16.789Z,448.00
2019-04-23T06:14:18.980Z,452.00
2019-04-23T06:15:14.584Z,456.00
2019-04-23T06:16:16.547Z,460.00
2019-04-23T06:18:18.258Z,464.00
2019-04-23T06:19:12.867Z,472.00
2019-04-23T06:22:16.848Z,480.00
2019-04-23T06:23:17.732Z,488.00
2019-04-23T06:24:18.337Z,488.00
2019-04-23T06:25:21.993Z,488.00
2019-04-23T06:27:13.582Z,492.00
2019-04-23T06:28:14.590Z,496.00
2019-04-23T06:30:08.644Z,496.00
2019-04-23T06:31:16.630Z,496.00
2019-04-23T06:32:06.409Z,496.00
2019-04-23T06:33:16.649Z,500.00
2019-04-23T06:34:17.134Z,500.00
2019-04-23T06:35:12.024Z,508.00
2019-04-23T06:36:13.585Z,508.00
2019-04-23T06:37:09.671Z,512.00
2019-04-23T06:38:35.255Z,512.00
2019-04-23T06:39:07.269Z,516.00
2019-04-23T06:40:16.566Z,516.00
2019-04-23T06:41:15.652Z,524.00
2019-04-23T06:42:23.165Z,528.00
2019-04-23T06:43:15.071Z,528.00
2019-04-23T06:45:04.855Z,540.00
2019-04-23T06:46:16.706Z,540.00
2019-04-23T06:47:08.290Z,544.00
2019-04-23T06:48:18.375Z,548.00
2019-04-23T06:49:20.128Z,548.00
2019-04-23T06:50:08.135Z,552.00
2019-04-23T06:52:15.211Z,552.00
2019-04-23T06:53:07.035Z,556.00
2019-04-23T06:54:12.348Z,556.00
2019-04-23T06:55:15.784Z,556.00
2019-04-23T06:56:24.993Z,552.00
2019-04-23T06:57:16.296Z,556.00
2019-04-23T06:58:20.746Z,556.00
2019-04-23T06:59:11.933Z,560.00
2019-04-23T07:00:27.661Z,556.00
2019-04-23T07:01:11.462Z,560.00
2019-04-23T07:02:11.791Z,560.00
2019-04-23T07:03:14.972Z,560.00
2019-04-23T07:04:12.712Z,560.00
2019-04-23T07:07:41.035Z,552.00
2019-04-23T07:08:17.941Z,548.00
2019-04-23T07:10:10.079Z,536.00
2019-04-23T07:12:08.650Z,532.00
2019-04-23T07:13:10.962Z,524.00
2019-04-23T07:14:30.808Z,520.00
2019-04-23T07:15:16.390Z,520.00
2019-04-23T07:16:09.892Z,512.00
2019-04-23T07:17:08.551Z,512.00
2019-04-23T07:18:10.150Z,508.00
2019-04-23T07:19:18.568Z,512.00
2019-04-23T07:20:13.123Z,504.00
2019-04-23T07:21:17.941Z,504.00
2019-04-23T07:23:14.126Z,504.00
2019-04-23T07:24:08.503Z,504.00
2019-04-23T07:25:15.371Z,500.00
2019-04-23T07:26:28.253Z,500.00
2019-04-23T07:27:13.181Z,500.00
2019-04-23T07:28:13.220Z,500.00
2019-04-23T07:29:11.021Z,500.00
2019-04-23T07:30:16.736Z,496.00
2019-04-23T07:31:28.061Z,504.00
2019-04-23T07:32:23.634Z,500.00
2019-04-23T07:33:13.207Z,504.00
2019-04-23T07:34:14.103Z,512.00
2019-04-23T07:36:21.029Z,512.00
2019-04-23T07:37:12.590Z,516.00
2019-04-23T07:38:20.674Z,516.00
2019-04-23T07:39:16.036Z,516.00
2019-04-23T07:40:24.736Z,512.00
2019-04-23T07:41:16.477Z,516.00
2019-04-23T07:42:20.264Z,512.00
2019-04-23T07:43:18.541Z,512.00
2019-04-23T07:46:16.910Z,504.00
2019-04-23T07:49:10.358Z,504.00
2019-04-23T07:51:15.735Z,500.00
2019-04-23T07:52:18.020Z,500.00
2019-04-23T07:54:16.334Z,504.00
2019-04-23T07:55:20.121Z,508.00
2019-04-23T07:59:22.732Z,520.00
2019-04-23T08:00:34.493Z,528.00
2019-04-23T08:01:08.228Z,532.00
2019-04-23T08:03:17.389Z,540.00
2019-04-23T08:04:10.579Z,544.00
2019-04-23T08:05:26.568Z,548.00
2019-04-23T08:06:19.375Z,552.00
2019-04-23T08:07:16.436Z,548.00
2019-04-23T08:08:26.527Z,548.00
2019-04-23T08:09:10.946Z,552.00
2019-04-23T08:10:17.023Z,548.00
2019-04-23T08:11:33.144Z,548.00
2019-04-23T08:12:19.209Z,548.00
2019-04-23T08:13:16.357Z,544.00
2019-04-23T08:14:08.651Z,544.00
2019-04-23T08:15:14.910Z,544.00
2019-04-23T08:17:12.418Z,544.00
2019-04-23T08:18:15.834Z,544.00
2019-04-23T08:19:08.083Z,544.00
2019-04-23T08:20:29.960Z,548.00
2019-04-23T08:21:24.688Z,544.00
2019-04-23T08:22:22.159Z,548.00
2019-04-23T08:23:09.976Z,548.00
2019-04-23T08:24:29.605Z,552.00
2019-04-23T08:25:12.482Z,552.00
2019-04-23T08:26:19.418Z,552.00
2019-04-23T08:27:22.530Z,556.00
2019-04-23T08:28:13.555Z,564.00
2019-04-23T08:30:07.635Z,568.00
2019-04-23T08:31:14.190Z,572.00
2019-04-23T08:32:19.561Z,572.00
2019-04-23T08:33:17.218Z,576.00
2019-04-23T08:35:16.407Z,580.00
2019-04-23T08:36:11.763Z,584.00
2019-04-23T08:39:10.284Z,592.00
2019-04-23T08:40:16.607Z,596.00
2019-04-23T08:41:23.953Z,600.00
2019-04-23T08:42:32.609Z,604.00
2019-04-23T08:43:18.056Z,612.00
2019-04-23T08:44:21.606Z,616.00
2019-04-23T08:45:15.597Z,624.00
2019-04-23T08:46:14.078Z,628.00
2019-04-23T08:48:09.517Z,636.00
2019-04-23T08:48:27.889Z,636.00
2019-04-23T08:49:22.727Z,640.00
2019-04-23T08:50:19.352Z,640.00
2019-04-23T08:51:22.380Z,640.00
2019-04-23T08:52:12.167Z,644.00
2019-04-23T08:53:30.874Z,644.00
2019-04-23T08:54:17.452Z,644.00
2019-04-23T08:55:15.278Z,644.00
2019-04-23T08:56:08.701Z,644.00
2019-04-23T08:57:14.389Z,644.00
2019-04-23T08:58:14.184Z,644.00
2019-04-23T08:59:21.258Z,644.00
2019-04-23T09:00:09.125Z,644.00
2019-04-23T09:01:12.359Z,640.00
2019-04-23T09:02:24.205Z,636.00
2019-04-23T09:03:19.992Z,636.00
2019-04-23T09:04:09.223Z,636.00
2019-04-23T09:05:34.726Z,632.00
2019-04-23T09:06:13.809Z,632.00
2019-04-23T09:07:16.807Z,632.00
2019-04-23T09:08:17.241Z,636.00
2019-04-23T09:09:13.298Z,636.00
2019-04-23T09:10:17.863Z,632.00
2019-04-23T09:11:30.484Z,632.00
2019-04-23T09:12:18.530Z,632.00
2019-04-23T09:14:27.773Z,640.00
2019-04-23T09:15:16.855Z,636.00
2019-04-23T09:16:10.653Z,636.00
2019-04-23T09:17:20.812Z,640.00
2019-04-23T09:18:15.957Z,640.00
2019-04-23T09:19:16.031Z,636.00
2019-04-23T09:21:16.161Z,628.00
2019-04-23T09:22:31.047Z,624.00
2019-04-23T09:23:13.180Z,624.00
2019-04-23T09:24:11.393Z,628.00
2019-04-23T09:25:20.285Z,624.00
2019-04-23T09:26:06.275Z,628.00
2019-04-23T09:27:28.903Z,632.00
2019-04-23T09:28:23.858Z,636.00
2019-04-23T09:29:14.801Z,644.00
2019-04-23T09:30:13.298Z,648.00
2019-04-23T09:32:21.763Z,672.00
2019-04-23T09:33:21.653Z,684.00
2019-04-23T09:34:11.299Z,696.00
2019-04-23T09:35:20.985Z,708.00
2019-04-23T09:36:18.451Z,716.00
2019-04-23T09:37:19.443Z,728.00
2019-04-23T09:38:11.290Z,732.00
2019-04-23T09:39:14.075Z,744.00
2019-04-23T09:40:18.847Z,752.00
2019-04-23T09:42:14.726Z,760.00
2019-04-23T09:43:29.611Z,772.00
2019-04-23T09:44:39.794Z,780.00
2019-04-23T09:45:15.149Z,788.00
2019-04-23T09:46:17.921Z,800.00
2019-04-23T09:47:17.060Z,808.00
2019-04-23T09:48:04.698Z,816.00
2019-04-23T09:49:16.234Z,824.00
2019-04-23T09:50:15.649Z,828.00
2019-04-23T09:52:14.668Z,840.00
2019-04-23T09:53:17.169Z,848.00
2019-04-23T09:55:24.187Z,860.00
2019-04-23T09:56:07.115Z,864.00
2019-04-23T09:57:14.042Z,872.00
2019-04-23T09:59:17.550Z,884.00
2019-04-23T10:00:21.801Z,888.00
2019-04-23T10:01:20.476Z,892.00
2019-04-23T10:02:05.298Z,892.00
2019-04-23T10:03:03.555Z,900.00
2019-04-23T10:03:57.626Z,908.00
2019-04-23T10:05:01.293Z,916.00
2019-04-23T10:05:56.341Z,928.00
2019-04-23T10:07:02.056Z,936.00
2019-04-23T10:07:54.388Z,948.00
2019-04-23T10:08:52.202Z,956.00
2019-04-23T10:09:47.721Z,964.00
2019-04-23T10:10:47.071Z,972.00
2019-04-23T10:11:47.129Z,980.00
2019-04-23T10:12:46.071Z,984.00
2019-04-23T10:13:45.510Z,984.00
2019-04-23T10:14:53.862Z,984.00
2019-04-23T10:15:47.786Z,984.00
2019-04-23T10:16:47.218Z,984.00
2019-04-23T10:17:46.432Z,976.00
2019-04-23T10:18:46.831Z,968.00
2019-04-23T10:19:46.680Z,964.00
2019-04-23T10:20:46.662Z,960.00
2019-04-23T10:21:46.938Z,956.00
2019-04-23T10:22:46.269Z,952.00
2019-04-23T10:23:45.548Z,952.00
2019-04-23T10:24:45.627Z,952.00
2019-04-23T10:25:45.781Z,956.00
2019-04-23T10:26:46.187Z,956.00
2019-04-23T10:27:49.870Z,956.00
2019-04-23T10:28:45.538Z,960.00
2019-04-23T10:29:45.869Z,964.00
2019-04-23T10:30:46.775Z,972.00
2019-04-23T10:31:46.065Z,972.00
2019-04-23T10:32:45.549Z,972.00
2019-04-23T10:33:46.136Z,976.00
2019-04-23T10:34:58.067Z,980.00
2019-04-23T10:35:53.084Z,980.00
2019-04-23T10:36:47.260Z,980.00
2019-04-23T10:37:52.892Z,980.00
2019-04-23T10:38:54.024Z,976.00
2019-04-23T10:39:53.939Z,976.00
2019-04-23T10:40:49.656Z,976.00
2019-04-23T10:41:46.808Z,972.00
2019-04-23T10:42:47.908Z,972.00
2019-04-23T10:43:48.375Z,976.00
2019-04-23T10:44:46.629Z,980.00
2019-04-23T10:46:07.822Z,980.00
2019-04-23T10:47:12.301Z,984.00
2019-04-23T10:48:24.613Z,988.00
2019-04-23T10:49:41.944Z,992.00
2019-04-23T10:50:17.257Z,996.00
2019-04-23T10:51:17.131Z,996.00
2019-04-23T10:53:28.354Z,1004.00
2019-04-23T10:54:27.924Z,1012.00
2019-04-23T10:55:22.322Z,1016.00
2019-04-23T10:56:23.126Z,1020.00
2019-04-23T10:57:14.474Z,1028.00
2019-04-23T10:58:16.449Z,1032.00
2019-04-23T10:59:21.521Z,1036.00
2019-04-23T11:00:12.626Z,1048.00
2019-04-23T11:01:14.955Z,1052.00
2019-04-23T11:03:31.827Z,1064.00
2019-04-23T11:05:15.918Z,1080.00
2019-04-23T11:06:23.329Z,1084.00
2019-04-23T11:07:26.955Z,1096.00
2019-04-23T11:08:13.130Z,1100.00
2019-04-23T11:09:27.740Z,1104.00
2019-04-23T11:11:16.611Z,1120.00
2019-04-23T11:12:23.714Z,1128.00
2019-04-23T11:13:17.529Z,1136.00
2019-04-23T11:14:23.082Z,1140.00
2019-04-23T11:17:21.277Z,1164.00
2019-04-23T11:18:02.892Z,1168.00
2019-04-23T11:19:15.668Z,1176.00
2019-04-23T11:21:23.948Z,1188.00
2019-04-23T11:22:38.807Z,1192.00
2019-04-23T11:23:04.856Z,1200.00
2019-04-23T11:24:34.420Z,1212.00
2019-04-23T11:25:28.353Z,1220.00
2019-04-23T11:26:24.736Z,1232.00
2019-04-23T11:27:25.996Z,1248.00
2019-04-23T11:29:20.949Z,1272.00
2019-04-23T11:30:29.351Z,1276.00
2019-04-23T11:31:26.117Z,1284.00
2019-04-23T11:32:42.879Z,1288.00
2019-04-23T11:33:16.235Z,1300.00
2019-04-23T11:34:44.496Z,1308.00
2019-04-23T11:35:22.703Z,1320.00
2019-04-23T11:37:23.076Z,1328.00
2019-04-23T11:38:43.590Z,1328.00
2019-04-23T11:39:17.061Z,1328.00
2019-04-23T11:40:17.302Z,1340.00
2019-04-23T11:41:23.370Z,1344.00
2019-04-23T11:44:18.815Z,1372.00
2019-04-23T11:45:24.602Z,1376.00
2019-04-23T11:48:33.281Z,1388.00
2019-04-23T11:49:26.489Z,1388.00
2019-04-23T11:50:19.019Z,1396.00
2019-04-23T11:51:10.352Z,1388.00
2019-04-23T11:52:21.121Z,1396.00
2019-04-23T11:53:21.068Z,1396.00
2019-04-23T11:54:21.347Z,1392.00
2019-04-23T11:55:28.701Z,1392.00
2019-04-23T11:56:22.748Z,1388.00
2019-04-23T11:58:20.765Z,1388.00
2019-04-23T11:59:28.940Z,1392.00
2019-04-23T12:00:13.893Z,1392.00
2019-04-23T12:02:12.096Z,1388.00
2019-04-23T12:03:29.339Z,1388.00
2019-04-23T12:04:18.645Z,1392.00
2019-04-23T12:05:20.747Z,1388.00
2019-04-23T12:06:16.866Z,1392.00
2019-04-23T12:07:17.604Z,1392.00
2019-04-23T12:10:23.519Z,1392.00
2019-04-23T12:11:41.626Z,1388.00
2019-04-23T12:12:17.102Z,1384.00
2019-04-23T12:13:20.729Z,1380.00
2019-04-23T12:14:24.058Z,1380.00
2019-04-23T12:15:19.661Z,1376.00
2019-04-23T12:16:24.213Z,1380.00
2019-04-23T12:18:16.980Z,1400.00
2019-04-23T12:19:51.329Z,1408.00
2019-04-23T12:20:23.673Z,1416.00
2019-04-23T12:21:12.692Z,1428.00
2019-04-23T12:22:22.206Z,1440.00
2019-04-23T12:23:25.468Z,1448.00
2019-04-23T12:24:28.496Z,1464.00
2019-04-23T12:26:19.222Z,1488.00
2019-04-23T12:27:30.733Z,1496.00
2019-04-23T12:28:13.601Z,1508.00
2019-04-23T12:29:23.368Z,1516.00
2019-04-23T12:30:16.553Z,1528.00
2019-04-23T12:31:23.527Z,1528.00
2019-04-23T12:32:35.710Z,1532.00
2019-04-23T12:33:20.734Z,1528.00
2019-04-23T12:34:20.723Z,1516.00
2019-04-23T12:35:19.274Z,1508.00
2019-04-23T12:36:21.309Z,1488.00
2019-04-23T12:37:22.688Z,1464.00
2019-04-23T12:38:25.717Z,1444.00
2019-04-23T12:41:14.051Z,1376.00
2019-04-23T12:42:38.349Z,1356.00
2019-04-23T12:43:17.579Z,1328.00
2019-04-23T12:44:19.436Z,1300.00
2019-04-23T12:45:20.655Z,1276.00
2019-04-23T12:46:02.181Z,1248.00
2019-04-23T12:47:27.514Z,1228.00
2019-04-23T12:49:35.757Z,1184.00
2019-04-23T12:50:41.655Z,1160.00
2019-04-23T12:51:24.282Z,1136.00
2019-04-23T12:52:17.055Z,1120.00
2019-04-23T12:53:19.902Z,1100.00
2019-04-23T12:54:25.114Z,1080.00
2019-04-23T12:56:20.380Z,1052.00
2019-04-23T12:57:17.527Z,1040.00
2019-04-23T12:58:14.511Z,1028.00
2019-04-23T12:59:20.310Z,1016.00
2019-04-23T13:00:25.659Z,1008.00
2019-04-23T13:01:16.333Z,1000.00
2019-04-23T13:02:25.323Z,992.00
2019-04-23T13:03:21.586Z,980.00
2019-04-23T13:04:21.789Z,972.00
2019-04-23T13:05:14.436Z,960.00
2019-04-23T13:06:10.828Z,960.00
2019-04-23T13:07:17.868Z,952.00
2019-04-23T13:09:28.858Z,944.00
2019-04-23T13:10:14.811Z,932.00
2019-04-23T13:11:13.969Z,920.00
2019-04-23T13:12:27.642Z,912.00
2019-04-23T13:13:27.901Z,904.00
2019-04-23T13:14:20.329Z,900.00
2019-04-23T13:15:17.305Z,892.00
2019-04-23T13:16:17.848Z,888.00
2019-04-23T13:17:39.621Z,888.00
2019-04-23T13:18:15.297Z,884.00
2019-04-23T13:19:26.369Z,884.00
2019-04-23T13:20:18.523Z,884.00
2019-04-23T13:21:38.260Z,888.00
2019-04-23T13:22:16.593Z,892.00
2019-04-23T13:23:29.827Z,896.00
2019-04-23T13:24:15.952Z,896.00
2019-04-23T13:25:17.898Z,900.00
2019-04-23T13:26:24.822Z,904.00
2019-04-23T13:27:26.122Z,908.00
2019-04-23T13:28:19.667Z,920.00
2019-04-23T13:29:22.086Z,928.00
2019-04-23T13:31:12.518Z,952.00
2019-04-23T13:32:17.319Z,964.00
2019-04-23T13:33:20.928Z,976.00
2019-04-23T13:34:14.942Z,988.00
2019-04-23T13:35:28.144Z,992.00
2019-04-23T13:36:19.007Z,996.00
2019-04-23T13:37:20.206Z,1000.00
2019-04-23T13:38:28.266Z,1004.00
2019-04-23T13:39:17.981Z,1012.00
2019-04-23T13:40:17.773Z,1024.00
2019-04-23T13:41:28.820Z,1032.00
2019-04-23T13:42:24.337Z,1036.00
2019-04-23T13:43:19.214Z,1044.00
2019-04-23T13:44:08.870Z,1048.00
2019-04-23T13:45:33.768Z,1048.00
2019-04-23T13:46:13.204Z,1056.00
2019-04-23T13:47:21.971Z,1052.00
2019-04-23T13:48:13.410Z,1056.00
2019-04-23T13:49:21.275Z,1056.00
2019-04-23T13:50:43.733Z,1052.00
2019-04-23T13:52:43.296Z,1060.00
2019-04-23T13:53:31.668Z,1064.00
2019-04-23T13:54:24.660Z,1080.00
2019-04-23T13:55:10.896Z,1096.00
2019-04-23T13:56:15.426Z,1120.00
2019-04-23T13:59:29.057Z,1196.00
2019-04-23T14:00:21.185Z,1208.00
2019-04-23T14:01:28.970Z,1224.00
2019-04-23T14:02:23.445Z,1236.00
2019-04-23T14:03:20.023Z,1248.00
2019-04-23T14:04:24.876Z,1252.00
2019-04-23T14:05:19.235Z,1264.00
2019-04-23T14:08:20.495Z,1244.00
2019-04-23T14:09:28.471Z,1240.00
2019-04-23T14:10:25.890Z,1240.00
2019-04-23T14:12:17.752Z,1216.00
2019-04-23T14:13:37.235Z,1212.00
2019-04-23T14:15:27.141Z,1200.00
2019-04-23T14:16:29.832Z,1196.00
2019-04-23T14:17:27.543Z,1184.00
2019-04-23T14:19:26.156Z,1152.00
2019-04-23T14:20:16.915Z,1124.00
2019-04-23T14:21:22.028Z,1104.00
2019-04-23T14:22:31.373Z,1064.00
2019-04-23T14:25:10.015Z,1012.00
2019-04-23T14:27:24.501Z,1008.00
2019-04-23T14:28:21.633Z,1000.00
2019-04-23T14:29:13.043Z,996.00
2019-04-23T14:30:21.005Z,988.00
2019-04-23T14:31:19.027Z,988.00
2019-04-23T14:32:23.447Z,996.00
2019-04-23T14:33:17.465Z,1004.00
2019-04-23T14:34:09.172Z,1012.00
2019-04-23T14:36:14.039Z,1020.00
2019-04-23T14:37:18.167Z,1036.00
2019-04-23T14:38:30.287Z,1044.00
2019-04-23T14:39:21.664Z,1040.00
2019-04-23T14:40:21.676Z,1040.00
2019-04-23T14:42:24.405Z,1044.00
2019-04-23T14:43:25.922Z,1044.00
2019-04-23T14:44:16.139Z,1048.00
2019-04-23T14:48:17.569Z,1028.00
2019-04-23T14:49:11.347Z,1012.00
2019-04-23T14:51:22.989Z,988.00
2019-04-23T14:52:21.718Z,972.00
2019-04-23T14:54:13.400Z,952.00
2019-04-23T14:56:19.034Z,920.00
2019-04-23T14:58:36.806Z,888.00
2019-04-23T14:59:21.815Z,880.00
2019-04-23T15:00:18.006Z,872.00
2019-04-23T15:01:33.572Z,872.00
2019-04-23T15:02:22.899Z,872.00
2019-04-23T15:03:25.395Z,868.00
2019-04-23T15:04:10.977Z,864.00